Terminal Aerodrome Forecast
Issued by NWS North Platte, NE

Home | Current Version | Previous Version | Graphics & Text | Print | Product List | Glossary On
Versions: 1 2 3 4 5 6 7 8 9 10 11 12 13 14 15
416
FTUS43 KLBF 170538
TAFVTN
TAF
KVTN 170538Z 1706/1806 24006KT P6SM SKC
     FM171000 27009KT P6SM BKN200
     FM171100 31009KT P6SM BKN200
     FM171500 33006KT P6SM SCT070 BKN150
     FM180000 03008KT P6SM OVC050 PROB30 1800/1806 4SM -RA BR
      OVC050=

USA.gov is the U.S. government's official web portal to all federal, state and local government web resources and services.